Wetterdaten: Woche 17.08.15 - 23.08.15 (KW34)
Datum Zeit Temp. Aussen +5cm Feuchte Auss BlattFeu 1 Luftdruck Regen Sonnenschein Regendauer Solar Windben
17.08.2015 00:00 13,7 C 12,8 C 99 % 15 lf 1014,3 hPa 0,2 l/m 0,00 h 0,77 h 0 W/m 16,1 km/h (3 Bft)
17.08.2015 01:00 13,5 C 12,3 C 99 % 15 lf 1014,1 hPa 0,4 l/m 0,00 h 1,00 h 0 W/m 16,5 km/h (3 Bft)
17.08.2015 02:00 13,2 C 12,2 C 99 % 15 lf 1013,9 hPa 0,4 l/m 0,00 h 0,70 h 0 W/m 15,3 km/h (3 Bft)
17.08.2015 03:00 13,1 C 12,2 C 99 % 15 lf 1013,7 hPa 0,4 l/m 0,00 h 0,90 h 0 W/m 14,5 km/h (3 Bft)
17.08.2015 04:00 13,2 C 12,2 C 99 % 15 lf 1013,6 hPa 0,6 l/m 0,00 h 0,98 h 0 W/m 11,7 km/h (2 Bft)
17.08.2015 05:00 13,1 C 12,2 C 99 % 15 lf 1013,1 hPa 0,0 l/m 0,00 h 0,17 h 0 W/m 14,8 km/h (3 Bft)
17.08.2015 06:00 13,1 C 12,2 C 99 % 15 lf 1013,0 hPa 0,2 l/m 0,00 h 0,00 h 4 W/m 14,4 km/h (3 Bft)
17.08.2015 07:00 13,0 C 12,2 C 99 % 15 lf 1013,0 hPa 0,0 l/m 0,00 h 0,30 h 11 W/m 16,4 km/h (3 Bft)
17.08.2015 08:00 13,1 C 12,2 C 99 % 15 lf 1012,8 hPa 0,0 l/m 0,00 h 0,10 h 30 W/m 18,2 km/h (3 Bft)
17.08.2015 09:00 13,3 C 12,6 C 99 % 15 lf 1012,8 hPa 0,0 l/m 0,00 h 0,00 h 50 W/m 18,4 km/h (3 Bft)
17.08.2015 10:00 13,6 C 12,8 C 99 % 15 lf 1012,8 hPa 0,0 l/m 0,00 h 0,00 h 57 W/m 15,9 km/h (3 Bft)
17.08.2015 11:00 14,0 C 13,3 C 100 % 15 lf 1012,9 hPa 0,2 l/m 0,00 h 0,67 h 84 W/m 14,3 km/h (3 Bft)
17.08.2015 12:00 14,2 C 13,3 C 99 % 15 lf 1012,9 hPa 0,0 l/m 0,00 h 0,30 h 97 W/m 16,6 km/h (3 Bft)
17.08.2015 13:00 14,3 C 13,3 C 99 % 15 lf 1012,8 hPa 0,4 l/m 0,00 h 1,00 h 92 W/m 15,9 km/h (3 Bft)
17.08.2015 14:00 14,5 C 13,6 C 99 % 15 lf 1012,8 hPa 0,6 l/m 0,00 h 1,00 h 137 W/m 16,4 km/h (3 Bft)
17.08.2015 15:00 14,8 C 13,9 C 99 % 15 lf 1012,5 hPa 0,4 l/m 0,00 h 1,00 h 127 W/m 14,3 km/h (3 Bft)
17.08.2015 16:00 14,9 C 13,9 C 99 % 15 lf 1012,5 hPa 0,8 l/m 0,00 h 0,97 h 83 W/m 11,8 km/h (2 Bft)
17.08.2015 17:00 14,8 C 13,7 C 98 % 15 lf 1012,4 hPa 1,8 l/m 0,00 h 1,00 h 63 W/m 14,0 km/h (3 Bft)
17.08.2015 18:00 14,6 C 13,3 C 99 % 15 lf 1012,2 hPa 1,8 l/m 0,00 h 0,98 h 39 W/m 13,5 km/h (3 Bft)
17.08.2015 19:00 14,3 C 13,2 C 99 % 15 lf 1012,1 hPa 1,4 l/m 0,00 h 1,00 h 22 W/m 13,8 km/h (3 Bft)
17.08.2015 20:00 14,2 C 12,8 C 99 % 15 lf 1012,2 hPa 0,4 l/m 0,00 h 1,00 h 9 W/m 13,0 km/h (3 Bft)
17.08.2015 21:00 14,1 C 12,8 C 99 % 15 lf 1012,4 hPa 0,6 l/m 0,00 h 1,00 h 0 W/m 16,9 km/h (3 Bft)
17.08.2015 22:00 13,6 C 12,4 C 99 % 15 lf 1012,3 hPa 0,6 l/m 0,00 h 1,00 h 0 W/m 19,6 km/h (3 Bft)
17.08.2015 23:00 13,4 C 12,2 C 99 % 15 lf 1012,1 hPa 0,6 l/m 0,00 h 1,00 h 0 W/m 16,4 km/h (3 Bft)
18.08.2015 00:00 13,4 C 12,2 C 99 % 15 lf 1012,0 hPa 0,0 l/m 0,00 h 0,93 h 0 W/m 17,9 km/h (3 Bft)
18.08.2015 01:00 13,4 C 12,2 C 99 % 15 lf 1012,0 hPa 0,4 l/m 0,00 h 1,00 h 0 W/m 19,3 km/h (3 Bft)
18.08.2015 02:00 13,0 C 11,8 C 99 % 15 lf 1012,0 hPa 0,2 l/m 0,00 h 1,00 h 0 W/m 18,9 km/h (3 Bft)
18.08.2015 03:00 12,7 C 11,7 C 99 % 15 lf 1011,9 hPa 0,0 l/m 0,00 h 0,53 h 0 W/m 19,2 km/h (3 Bft)
18.08.2015 04:00 12,6 C 11,7 C 99 % 15 lf 1012,0 hPa 0,0 l/m 0,00 h 0,03 h 0 W/m 18,0 km/h (3 Bft)
18.08.2015 05:00 12,4 C 11,7 C 99 % 15 lf 1012,1 hPa 0,0 l/m 0,00 h 0,00 h 0 W/m 17,3 km/h (3 Bft)
18.08.2015 06:00 12,4 C 11,7 C 99 % 15 lf 1012,2 hPa 0,0 l/m 0,00 h 0,00 h 5 W/m 16,2 km/h (3 Bft)
18.08.2015 07:00 12,4 C 11,7 C 99 % 14 lf 1012,4 hPa 0,0 l/m 0,00 h 0,00 h 29 W/m 18,5 km/h (3 Bft)
18.08.2015 08:00 12,7 C 12,4 C 99 % 8 lf 1012,7 hPa 0,0 l/m 0,20 h 0,03 h 121 W/m 16,4 km/h (3 Bft)
18.08.2015 09:00 13,5 C 12,9 C 98 % 0 lf 1012,9 hPa 0,0 l/m 0,00 h 0,00 h 111 W/m 16,2 km/h (3 Bft)
18.08.2015 10:00 13,8 C 13,2 C 96 % 0 lf 1013,5 hPa 0,0 l/m 0,00 h 0,00 h 160 W/m 20,7 km/h (4 Bft)
18.08.2015 11:00 14,7 C 15,1 C 92 % 0 lf 1013,9 hPa 0,0 l/m 0,23 h 0,00 h 318 W/m 17,5 km/h (3 Bft)
18.08.2015 12:00 15,5 C 15,2 C 87 % 0 lf 1014,2 hPa 0,0 l/m 0,17 h 0,00 h 234 W/m 16,8 km/h (3 Bft)
18.08.2015 13:00 15,9 C 16,1 C 86 % 0 lf 1014,5 hPa 0,0 l/m 0,03 h 0,00 h 273 W/m 15,1 km/h (3 Bft)
18.08.2015 14:00 17,1 C 17,5 C 82 % 0 lf 1014,7 hPa 0,0 l/m 0,37 h 0,00 h 422 W/m 11,4 km/h (2 Bft)
18.08.2015 15:00 18,5 C 17,3 C 76 % 0 lf 1014,9 hPa 0,0 l/m 0,13 h 0,00 h 213 W/m 10,2 km/h (2 Bft)
18.08.2015 16:00 18,3 C 18,2 C 77 % 0 lf 1015,3 hPa 0,0 l/m 0,67 h 0,00 h 341 W/m 8,3 km/h (2 Bft)
18.08.2015 17:00 18,7 C 16,9 C 75 % 0 lf 1015,5 hPa 0,0 l/m 0,00 h 0,00 h 90 W/m 8,3 km/h (2 Bft)
18.08.2015 18:00 17,6 C 16,2 C 80 % 0 lf 1015,7 hPa 0,0 l/m 0,10 h 0,00 h 112 W/m 4,8 km/h (1 Bft)
18.08.2015 19:00 17,6 C 16,4 C 79 % 0 lf 1015,8 hPa 0,0 l/m 0,13 h 0,00 h 85 W/m 9,2 km/h (2 Bft)
18.08.2015 20:00 17,0 C 15,1 C 78 % 0 lf 1016,2 hPa 0,0 l/m 0,00 h 0,00 h 13 W/m 9,2 km/h (2 Bft)
18.08.2015 21:00 16,2 C 14,2 C 82 % 0 lf 1016,7 hPa 0,0 l/m 0,00 h 0,00 h 0 W/m 8,7 km/h (2 Bft)
18.08.2015 22:00 15,3 C 13,9 C 83 % 0 lf 1017,2 hPa 0,0 l/m 0,00 h 0,00 h 0 W/m 7,1 km/h (2 Bft)
18.08.2015 23:00 14,9 C 13,2 C 83 % 0 lf 1017,5 hPa 0,0 l/m 0,00 h 0,00 h 0 W/m 5,5 km/h (1 Bft)
19.08.2015 00:00 14,2 C 11,5 C 85 % 0 lf 1017,7 hPa 0,0 l/m 0,00 h 0,00 h 0 W/m 5,3 km/h (1 Bft)
19.08.2015 01:00 12,9 C 10,3 C 88 % 1 lf 1018,0 hPa 0,0 l/m 0,00 h 0,00 h 0 W/m 3,4 km/h (1 Bft)
19.08.2015 02:00 11,8 C 9,6 C 90 % 8 lf 1018,1 hPa 0,0 l/m 0,00 h 0,00 h 0 W/m 4,1 km/h (1 Bft)
19.08.2015 03:00 11,0 C 9,3 C 92 % 15 lf 1018,4 hPa 0,0 l/m 0,00 h 0,00 h 0 W/m 4,6 km/h (1 Bft)
19.08.2015 04:00 10,6 C 9,1 C 94 % 15 lf 1018,5 hPa 0,0 l/m 0,00 h 0,00 h 0 W/m 5,4 km/h (1 Bft)
19.08.2015 05:00 10,3 C 8,9 C 95 % 15 lf 1018,4 hPa 0,0 l/m 0,00 h 0,00 h 0 W/m 5,5 km/h (1 Bft)
19.08.2015 06:00 9,9 C 8,6 C 96 % 15 lf 1018,7 hPa 0,0 l/m 0,07 h 0,03 h 14 W/m 2,6 km/h (1 Bft)
19.08.2015 07:00 10,2 C 9,8 C 96 % 15 lf 1019,1 hPa 0,0 l/m 0,80 h 0,00 h 89 W/m 5,2 km/h (1 Bft)
19.08.2015 08:00 11,4 C 11,4 C 97 % 15 lf 1019,4 hPa 0,0 l/m 0,97 h 0,00 h 238 W/m 7,2 km/h (2 Bft)
19.08.2015 09:00 13,7 C 14,6 C 97 % 2 lf 1019,7 hPa 0,0 l/m 1,00 h 0,00 h 364 W/m 8,6 km/h (2 Bft)
19.08.2015 10:00 17,3 C 20,9 C 83 % 0 lf 1020,0 hPa 0,0 l/m 1,00 h 0,00 h 459 W/m 9,1 km/h (2 Bft)
19.08.2015 11:00 19,4 C 20,9 C 72 % 0 lf 1020,1 hPa 0,0 l/m 0,70 h 0,00 h 463 W/m 10,1 km/h (2 Bft)
19.08.2015 12:00 20,8 C 23,1 C 65 % 0 lf 1020,0 hPa 0,0 l/m 0,93 h 0,00 h 694 W/m 10,7 km/h (2 Bft)
19.08.2015 13:00 22,2 C 20,9 C 60 % 0 lf 1020,1 hPa 0,0 l/m 0,47 h 0,00 h 406 W/m 8,4 km/h (2 Bft)
19.08.2015 14:00 20,5 C 18,6 C 66 % 0 lf 1020,5 hPa 0,0 l/m 0,00 h 0,00 h 141 W/m 3,6 km/h (1 Bft)
19.08.2015 15:00 20,6 C 20,7 C 65 % 0 lf 1020,3 hPa 0,0 l/m 0,17 h 0,00 h 304 W/m 7,2 km/h (2 Bft)
19.08.2015 16:00 21,3 C 20,5 C 63 % 0 lf 1020,2 hPa 0,0 l/m 0,20 h 0,00 h 299 W/m 7,8 km/h (2 Bft)
19.08.2015 17:00 21,7 C 19,7 C 61 % 0 lf 1020,1 hPa 0,0 l/m 0,57 h 0,00 h 273 W/m 9,8 km/h (2 Bft)
19.08.2015 18:00 21,5 C 19,5 C 61 % 0 lf 1020,3 hPa 0,0 l/m 0,97 h 0,00 h 275 W/m 9,7 km/h (2 Bft)
19.08.2015 19:00 21,0 C 18,6 C 64 % 0 lf 1020,4 hPa 0,0 l/m 0,50 h 0,00 h 100 W/m 7,3 km/h (2 Bft)
19.08.2015 20:00 19,9 C 16,2 C 71 % 0 lf 1020,8 hPa 0,0 l/m 0,57 h 0,00 h 29 W/m 2,4 km/h (1 Bft)
19.08.2015 21:00 18,0 C 14,5 C 77 % 0 lf 1021,2 hPa 0,0 l/m 0,00 h 0,00 h 0 W/m 1,5 km/h (1 Bft)
19.08.2015 22:00 16,7 C 14,1 C 82 % 0 lf 1021,3 hPa 0,0 l/m 0,00 h 0,00 h 0 W/m 2,3 km/h (1 Bft)
19.08.2015 23:00 15,9 C 13,5 C 84 % 0 lf 1021,3 hPa 0,0 l/m 0,00 h 0,00 h 0 W/m 2,0 km/h (1 Bft)
20.08.2015 00:00 15,0 C 12,5 C 85 % 0 lf 1021,6 hPa 0,0 l/m 0,00 h 0,00 h 0 W/m 1,6 km/h (1 Bft)
20.08.2015 01:00 14,1 C 12,2 C 87 % 0 lf 1021,7 hPa 0,0 l/m 0,00 h 0,00 h 0 W/m 0,3 km/h (0 Bft)
20.08.2015 02:00 13,7 C 12,2 C 90 % 0 lf 1021,6 hPa 0,0 l/m 0,00 h 0,00 h 0 W/m 3,1 km/h (1 Bft)
20.08.2015 03:00 13,4 C 12,0 C 92 % 0 lf 1021,6 hPa 0,0 l/m 0,00 h 0,00 h 0 W/m 2,9 km/h (1 Bft)
20.08.2015 04:00 13,0 C 11,0 C 92 % 3 lf 1021,8 hPa 0,0 l/m 0,00 h 0,00 h 0 W/m 1,3 km/h (1 Bft)
20.08.2015 05:00 12,3 C 10,6 C 93 % 14 lf 1021,7 hPa 0,0 l/m 0,00 h 0,00 h 0 W/m 1,7 km/h (1 Bft)
20.08.2015 06:00 11,8 C 10,6 C 93 % 15 lf 1022,0 hPa 0,0 l/m 0,23 h 0,00 h 16 W/m 1,2 km/h (1 Bft)
20.08.2015 07:00 12,3 C 11,8 C 95 % 15 lf 1022,2 hPa 0,0 l/m 0,43 h 0,00 h 74 W/m 4,7 km/h (1 Bft)
20.08.2015 08:00 13,8 C 13,6 C 97 % 9 lf 1022,3 hPa 0,0 l/m 1,00 h 0,00 h 244 W/m 9,4 km/h (2 Bft)
20.08.2015 09:00 16,3 C 16,7 C 94 % 0 lf 1022,5 hPa 0,0 l/m 1,00 h 0,00 h 419 W/m 13,5 km/h (3 Bft)
20.08.2015 10:00 20,3 C 25,5 C 75 % 0 lf 1022,6 hPa 0,0 l/m 1,00 h 0,00 h 577 W/m 13,0 km/h (3 Bft)
20.08.2015 11:00 23,1 C 26,3 C 65 % 0 lf 1022,6 hPa 0,0 l/m 0,93 h 0,00 h 641 W/m 10,8 km/h (2 Bft)
20.08.2015 12:00 24,6 C 26,7 C 59 % 0 lf 1022,6 hPa 0,0 l/m 0,92 h 0,00 h 719 W/m 14,8 km/h (3 Bft)
20.08.2015 13:00 25,6 C 24,6 C 54 % 0 lf 1022,6 hPa 0,0 l/m 1,00 h 0,00 h 777 W/m 12,0 km/h (2 Bft)
20.08.2015 14:00 26,6 C 24,1 C 50 % 0 lf 1022,5 hPa 0,0 l/m 1,00 h 0,00 h 754 W/m 8,9 km/h (2 Bft)
20.08.2015 15:00 26,6 C 24,3 C 49 % 0 lf 1022,1 hPa 0,0 l/m 0,90 h 0,00 h 647 W/m 9,2 km/h (2 Bft)
20.08.2015 16:00 26,8 C 25,6 C 48 % 0 lf 1021,7 hPa 0,0 l/m 1,00 h 0,00 h 591 W/m 9,4 km/h (2 Bft)
20.08.2015 17:00 26,2 C 23,3 C 49 % 0 lf 1021,6 hPa 0,0 l/m 1,00 h 0,00 h 429 W/m 10,1 km/h (2 Bft)
20.08.2015 18:00 25,4 C 22,4 C 51 % 0 lf 1021,6 hPa 0,0 l/m 0,97 h 0,00 h 252 W/m 6,2 km/h (2 Bft)
20.08.2015 19:00 24,4 C 20,7 C 54 % 0 lf 1021,8 hPa 0,0 l/m 0,30 h 0,00 h 83 W/m 5,2 km/h (1 Bft)
20.08.2015 20:00 23,0 C 18,9 C 60 % 0 lf 1022,1 hPa 0,0 l/m 0,00 h 0,00 h 20 W/m 6,6 km/h (2 Bft)
20.08.2015 21:00 20,7 C 16,6 C 69 % 0 lf 1022,6 hPa 0,0 l/m 0,00 h 0,00 h 0 W/m 1,9 km/h (1 Bft)
20.08.2015 22:00 19,0 C 15,9 C 76 % 0 lf 1022,8 hPa 0,0 l/m 0,00 h 0,00 h 0 W/m 0,0 km/h (0 Bft)
20.08.2015 23:00 17,7 C 14,6 C 81 % 0 lf 1022,8 hPa 0,0 l/m 0,00 h 0,00 h 0 W/m 0,0 km/h (0 Bft)
21.08.2015 00:00 16,6 C 14,9 C 85 % 0 lf 1022,9 hPa 0,0 l/m 0,00 h 0,00 h 0 W/m 0,7 km/h (0 Bft)
21.08.2015 01:00 16,3 C 14,2 C 88 % 0 lf 1022,8 hPa 0,0 l/m 0,00 h 0,00 h 0 W/m 4,5 km/h (1 Bft)
21.08.2015 02:00 15,5 C 13,4 C 88 % 0 lf 1022,8 hPa 0,0 l/m 0,00 h 0,00 h 0 W/m 5,0 km/h (1 Bft)
21.08.2015 03:00 15,0 C 13,5 C 88 % 0 lf 1022,9 hPa 0,0 l/m 0,00 h 0,00 h 0 W/m 8,4 km/h (2 Bft)
21.08.2015 04:00 14,8 C 13,1 C 88 % 0 lf 1022,8 hPa 0,0 l/m 0,00 h 0,00 h 0 W/m 8,1 km/h (2 Bft)
21.08.2015 05:00 14,4 C 12,8 C 90 % 0 lf 1022,8 hPa 0,0 l/m 0,00 h 0,00 h 0 W/m 8,3 km/h (2 Bft)
21.08.2015 06:00 14,1 C 12,2 C 91 % 0 lf 1023,2 hPa 0,0 l/m 0,00 h 0,00 h 12 W/m 5,5 km/h (1 Bft)
21.08.2015 07:00 13,8 C 12,8 C 92 % 0 lf 1023,5 hPa 0,0 l/m 0,63 h 0,00 h 82 W/m 7,6 km/h (2 Bft)
21.08.2015 08:00 14,8 C 14,6 C 92 % 0 lf 1023,6 hPa 0,0 l/m 1,00 h 0,00 h 241 W/m 8,4 km/h (2 Bft)
21.08.2015 09:00 17,4 C 17,5 C 86 % 0 lf 1023,7 hPa 0,0 l/m 1,00 h 0,00 h 403 W/m 10,9 km/h (2 Bft)
21.08.2015 10:00 21,1 C 25,7 C 76 % 0 lf 1023,8 hPa 0,0 l/m 1,00 h 0,00 h 544 W/m 10,4 km/h (2 Bft)
21.08.2015 11:00 23,4 C 26,7 C 68 % 0 lf 1023,6 hPa 0,0 l/m 0,97 h 0,00 h 616 W/m 12,5 km/h (3 Bft)
21.08.2015 12:00 25,1 C 27,4 C 63 % 0 lf 1023,4 hPa 0,0 l/m 0,93 h 0,00 h 700 W/m 15,3 km/h (3 Bft)
21.08.2015 13:00 26,8 C 25,8 C 57 % 0 lf 1023,1 hPa 0,0 l/m 1,00 h 0,00 h 759 W/m 14,8 km/h (3 Bft)
21.08.2015 14:00 27,5 C 25,4 C 53 % 0 lf 1022,5 hPa 0,0 l/m 0,83 h 0,00 h 619 W/m 15,3 km/h (3 Bft)
21.08.2015 15:00 27,7 C 25,7 C 51 % 0 lf 1022,1 hPa 0,0 l/m 0,97 h 0,00 h 632 W/m 14,0 km/h (3 Bft)
21.08.2015 16:00 27,6 C 26,2 C 49 % 0 lf 1021,7 hPa 0,0 l/m 0,87 h 0,00 h 438 W/m 14,4 km/h (3 Bft)
21.08.2015 17:00 27,4 C 24,5 C 48 % 0 lf 1021,6 hPa 0,0 l/m 1,00 h 0,00 h 414 W/m 12,6 km/h (3 Bft)
21.08.2015 18:00 26,4 C 23,0 C 53 % 0 lf 1021,4 hPa 0,0 l/m 0,83 h 0,00 h 193 W/m 9,4 km/h (2 Bft)
21.08.2015 19:00 25,3 C 21,7 C 57 % 0 lf 1021,1 hPa 0,0 l/m 0,30 h 0,00 h 80 W/m 6,5 km/h (2 Bft)
21.08.2015 20:00 23,8 C 19,1 C 63 % 0 lf 1021,3 hPa 0,0 l/m 0,00 h 0,00 h 17 W/m 4,4 km/h (1 Bft)
21.08.2015 21:00 21,7 C 17,3 C 67 % 0 lf 1021,4 hPa 0,0 l/m 0,00 h 0,00 h 0 W/m 4,7 km/h (1 Bft)
21.08.2015 22:00 19,9 C 16,1 C 73 % 0 lf 1021,3 hPa 0,0 l/m 0,00 h 0,00 h 0 W/m 1,7 km/h (1 Bft)
21.08.2015 23:00 18,2 C 15,1 C 79 % 0 lf 1021,3 hPa 0,0 l/m 0,00 h 0,00 h 0 W/m 1,2 km/h (1 Bft)
22.08.2015 00:00 17,0 C 14,4 C 83 % 0 lf 1021,2 hPa 0,0 l/m 0,00 h 0,00 h 0 W/m 3,7 km/h (1 Bft)
22.08.2015 01:00 16,3 C 14,2 C 85 % 0 lf 1021,0 hPa 0,0 l/m 0,00 h 0,00 h 0 W/m 6,3 km/h (2 Bft)
22.08.2015 02:00 16,1 C 14,1 C 84 % 0 lf 1020,4 hPa 0,0 l/m 0,00 h 0,00 h 0 W/m 7,0 km/h (2 Bft)
22.08.2015 03:00 16,0 C 13,6 C 84 % 0 lf 1020,2 hPa 0,0 l/m 0,00 h 0,00 h 0 W/m 5,5 km/h (1 Bft)
22.08.2015 04:00 15,4 C 13,0 C 85 % 0 lf 1020,1 hPa 0,0 l/m 0,00 h 0,00 h 0 W/m 5,4 km/h (1 Bft)
22.08.2015 05:00 14,8 C 12,8 C 87 % 0 lf 1020,1 hPa 0,0 l/m 0,00 h 0,00 h 0 W/m 6,6 km/h (2 Bft)
22.08.2015 06:00 14,5 C 12,6 C 88 % 0 lf 1020,0 hPa 0,0 l/m 0,00 h 0,00 h 12 W/m 6,6 km/h (2 Bft)
22.08.2015 07:00 14,2 C 13,1 C 88 % 0 lf 1020,0 hPa 0,0 l/m 0,80 h 0,00 h 91 W/m 7,5 km/h (2 Bft)
22.08.2015 08:00 15,2 C 14,9 C 88 % 0 lf 1020,0 hPa 0,0 l/m 1,00 h 0,00 h 255 W/m 10,4 km/h (2 Bft)
22.08.2015 09:00 18,4 C 18,4 C 79 % 0 lf 1019,9 hPa 0,0 l/m 1,00 h 0,00 h 416 W/m 13,5 km/h (3 Bft)
22.08.2015 10:00 22,5 C 27,1 C 65 % 0 lf 1019,7 hPa 0,0 l/m 1,00 h 0,00 h 579 W/m 13,9 km/h (3 Bft)
22.08.2015 11:00 25,3 C 28,0 C 58 % 0 lf 1019,3 hPa 0,0 l/m 1,00 h 0,00 h 643 W/m 13,8 km/h (3 Bft)
22.08.2015 12:00 26,5 C 27,5 C 54 % 0 lf 1018,9 hPa 0,0 l/m 0,80 h 0,00 h 599 W/m 12,9 km/h (3 Bft)
22.08.2015 13:00 28,0 C 27,2 C 47 % 0 lf 1018,3 hPa 0,0 l/m 1,00 h 0,00 h 832 W/m 18,6 km/h (3 Bft)
22.08.2015 14:00 28,6 C 26,6 C 43 % 0 lf 1017,7 hPa 0,0 l/m 1,00 h 0,00 h 787 W/m 20,2 km/h (4 Bft)
22.08.2015 15:00 28,6 C 26,4 C 44 % 0 lf 1017,2 hPa 0,0 l/m 0,93 h 0,00 h 551 W/m 17,7 km/h (3 Bft)
22.08.2015 16:00 27,7 C 26,3 C 44 % 0 lf 1016,7 hPa 0,0 l/m 0,90 h 0,00 h 418 W/m 18,5 km/h (3 Bft)
22.08.2015 17:00 27,3 C 24,6 C 46 % 0 lf 1016,0 hPa 0,0 l/m 0,90 h 0,00 h 348 W/m 17,8 km/h (3 Bft)
22.08.2015 18:00 26,8 C 24,2 C 47 % 0 lf 1015,4 hPa 0,0 l/m 0,97 h 0,00 h 285 W/m 16,6 km/h (3 Bft)
22.08.2015 19:00 26,0 C 23,0 C 48 % 0 lf 1015,1 hPa 0,0 l/m 0,33 h 0,00 h 85 W/m 15,9 km/h (3 Bft)
22.08.2015 20:00 24,6 C 20,4 C 50 % 0 lf 1014,9 hPa 0,0 l/m 0,03 h 0,00 h 17 W/m 10,5 km/h (2 Bft)
22.08.2015 21:00 22,3 C 17,5 C 57 % 0 lf 1014,7 hPa 0,0 l/m 0,00 h 0,00 h 0 W/m 5,3 km/h (1 Bft)
22.08.2015 22:00 20,2 C 16,1 C 64 % 0 lf 1014,3 hPa 0,0 l/m 0,00 h 0,00 h 0 W/m 5,5 km/h (1 Bft)
22.08.2015 23:00 18,6 C 15,3 C 67 % 0 lf 1014,0 hPa 0,0 l/m 0,00 h 0,00 h 0 W/m 5,6 km/h (1 Bft)
23.08.2015 00:00 17,6 C 14,5 C 69 % 0 lf 1013,5 hPa 0,0 l/m 0,00 h 0,00 h 0 W/m 6,7 km/h (2 Bft)
23.08.2015 01:00 16,9 C 13,9 C 70 % 0 lf 1012,8 hPa 0,0 l/m 0,00 h 0,00 h 0 W/m 6,7 km/h (2 Bft)
23.08.2015 02:00 16,4 C 13,7 C 71 % 0 lf 1012,4 hPa 0,0 l/m 0,00 h 0,00 h 0 W/m 5,9 km/h (2 Bft)
23.08.2015 03:00 15,9 C 13,2 C 72 % 0 lf 1011,9 hPa 0,0 l/m 0,00 h 0,00 h 0 W/m 6,2 km/h (2 Bft)
23.08.2015 04:00 15,6 C 13,1 C 74 % 0 lf 1011,3 hPa 0,0 l/m 0,00 h 0,00 h 0 W/m 7,7 km/h (2 Bft)
23.08.2015 05:00 15,1 C 12,2 C 75 % 0 lf 1010,8 hPa 0,0 l/m 0,00 h 0,00 h 0 W/m 2,4 km/h (1 Bft)
23.08.2015 06:00 13,7 C 11,2 C 80 % 0 lf 1010,4 hPa 0,0 l/m 0,00 h 0,00 h 11 W/m 2,2 km/h (1 Bft)
23.08.2015 07:00 12,9 C 11,8 C 85 % 0 lf 1010,2 hPa 0,0 l/m 0,57 h 0,00 h 71 W/m 4,8 km/h (1 Bft)
23.08.2015 08:00 14,4 C 14,5 C 84 % 0 lf 1009,7 hPa 0,0 l/m 1,00 h 0,00 h 250 W/m 9,2 km/h (2 Bft)
23.08.2015 09:00 19,0 C 19,1 C 68 % 0 lf 1009,1 hPa 0,0 l/m 1,00 h 0,00 h 413 W/m 21,5 km/h (4 Bft)
23.08.2015 10:00 22,8 C 26,2 C 56 % 0 lf 1008,2 hPa 0,0 l/m 1,00 h 0,00 h 548 W/m 28,7 km/h (4 Bft)
23.08.2015 11:00 24,6 C 27,3 C 51 % 0 lf 1007,3 hPa 0,0 l/m 1,00 h 0,00 h 675 W/m 33,5 km/h (5 Bft)
23.08.2015 12:00 26,1 C 27,7 C 47 % 0 lf 1006,7 hPa 0,0 l/m 0,80 h 0,00 h 650 W/m 36,3 km/h (5 Bft)
23.08.2015 13:00 27,0 C 26,3 C 44 % 0 lf 1006,0 hPa 0,0 l/m 1,00 h 0,00 h 741 W/m 38,7 km/h (5 Bft)
23.08.2015 14:00 27,6 C 26,1 C 43 % 0 lf 1005,3 hPa 0,0 l/m 1,00 h 0,00 h 727 W/m 34,9 km/h (5 Bft)
23.08.2015 15:00 27,1 C 25,5 C 43 % 0 lf 1004,6 hPa 0,0 l/m 0,40 h 0,00 h 398 W/m 33,4 km/h (5 Bft)
23.08.2015 16:00 26,4 C 25,1 C 45 % 0 lf 1004,1 hPa 0,0 l/m 0,43 h 0,00 h 287 W/m 29,2 km/h (5 Bft)
23.08.2015 17:00 26,3 C 24,8 C 45 % 0 lf 1003,2 hPa 0,0 l/m 0,43 h 0,00 h 223 W/m 32,4 km/h (5 Bft)
23.08.2015 18:00 25,5 C 23,7 C 46 % 0 lf 1002,9 hPa 0,0 l/m 0,00 h 0,00 h 97 W/m 27,3 km/h (4 Bft)
23.08.2015 19:00 24,3 C 21,7 C 56 % 0 lf 1003,4 hPa 0,0 l/m 0,00 h 0,00 h 27 W/m 19,7 km/h (3 Bft)
23.08.2015 20:00 21,3 C 19,1 C 77 % 0 lf 1004,3 hPa 0,0 l/m 0,00 h 0,00 h 10 W/m 14,5 km/h (3 Bft)
23.08.2015 21:00 20,0 C 18,0 C 82 % 3 lf 1004,4 hPa 0,0 l/m 0,00 h 0,27 h 0 W/m 7,3 km/h (2 Bft)
23.08.2015 22:00 19,4 C 16,3 C 85 % 15 lf 1004,1 hPa 0,0 l/m 0,00 h 0,47 h 0 W/m 2,7 km/h (1 Bft)
23.08.2015 23:00 18,8 C 16,3 C 89 % 10 lf 1003,8 hPa 0,2 l/m 0,00 h 0,30 h 0 W/m 4,7 km/h (1 Bft)
Min-Datum _ 19.08.15 19.08.15 22.08.15 18.08.15 23.08.15 - - - - 17.08.15
_ Min-Zeit 06:38 06:10 14:16 09:12 19:08 - - - - 04:02
Minimum _ 9,8 C 8,3 C 41 % 0 lf 1002,7 hPa - - - - 0,0 km/h (0 Bft)
Max-Datum _ 22.08.15 22.08.15 17.08.15 17.08.15 21.08.15 17.08.15 18.08.15 17.08.15 19.08.15 23.08.15
_ Max-Zeit 15:00 11:56 10:30 00:00 10:06 17:14 08:40 00:00 13:22 13:06
Maximum _ 28,9 C 30,0 C 100 % 15 lf 1023,9 hPa 1,8 l/m 0,03 h 0,03 h 924 W/m 56,5 km/h
SO (7 Bft)
Durchschnitt _ 18,2 C 16,9 C 78 % 4 lf 1016,7 hPa #12,6 l/m #54:15 h #21:34 h 292 W/m 11,2 km/h (2 Bft)
© 2015 W. Hausmann